• Join FlightAware (Why Join?)
  • Login
  • US Flag 
09:50AM EDT


 

Airport Tracker/Info


-or-


 

Live Flight TrackerFlight Track Log ✈ DAL1732 ✈ 23-May-2013 ✈ KATL - KCLE

Flight Track Log - Related Links

Times and Time Zones

All times are in EDT time to prevent confusion due to time zone crossing. See the DAL1732 flight status page for this flight to view local times or setup timezone preferences in your user account.

Time Position Orientation Groundspeed Altitude Reporting Facility
EDT Latitude Longitude Course Direction KTS MPH feet Rate Location/Type
02:37PM 33.6500 -84.4833 North 172 198 3,300  Level Atlanta TRACON
02:38PM 33.6833 -84.5500 301° West 251 289 5,400 3,000 Climbing Atlanta TRACON
02:39PM 33.8521 -84.1854 320° Northwest  Level FlightAware Approximate
02:39PM 33.7500 -84.5833 337° Northwest 263 303 9,400  Level Atlanta TRACON
02:40PM 33.9573 -84.2667 North  Level FlightAware Approximate
02:41PM 34.0868 -84.2667 North  Level FlightAware Approximate
02:41PM 33.8853 -84.4742 34° Northeast 285 328 11,900  Level Atlanta Center
02:42PM 34.2162 -84.2667 North  Level FlightAware Approximate
02:43PM 34.0506 -84.3647 29° Northeast 336 387 17,100  Level Atlanta Center
02:44PM 34.1572 -84.3275 16° North 373 429 20,100 1,980 Climbing Atlanta Center
02:45PM 34.2636 -84.2925 15° North 393 452 21,100 1,500 Climbing Atlanta Center
02:46PM 34.3825 -84.2603 13° North 416 479 23,200 2,280 Climbing Atlanta Center
02:47PM 34.4953 -84.2328 11° North 421 484 25,700 1,860 Climbing Atlanta Center
02:48PM 34.6164 -84.2053 11° North 421 484 27,000 900 Climbing Atlanta Center
02:49PM 34.7375 -84.1803 10° North 433 498 27,600 660 Climbing Atlanta Center
02:50PM 34.8669 -84.1475 12° North 448 516 28,400 1,500 Climbing Atlanta Center
02:51PM 35.0006 -84.1147 11° North 472 543 30,600 2,160 Climbing Atlanta Center
02:52PM 35.1236 -84.0869 10° North 467 537 32,800 1,380 Climbing Atlanta Center
02:53PM 35.2489 -84.0567 11° North 457 526 33,400 660 Climbing Atlanta Center
02:54PM 35.3761 -84.0261 11° North 457 526 34,200 780 Climbing Atlanta Center
02:55PM 35.5056 -83.9928 12° North 457 526 35,000 1,140 Climbing Atlanta Center
02:56PM 35.6347 -83.9622 11° North 469 540 36,500 900 Climbing Atlanta Center
02:57PM 35.7642 -83.9286 12° North 469 540 36,800 240 Climbing Atlanta Center
02:58PM 35.8956 -83.8928 12° North 469 540 37,000  Climbing Atlanta Center
03:00PM 36.1811 -83.7208 26° Northeast 488 562 36,900  Descending Indianapolis Center
03:02PM 36.3014 -83.6447 27° Northeast 487 560 37,000  Climbing Indianapolis Center
03:03PM 36.4222 -83.5672 27° Northeast 488 562 37,000  Level Indianapolis Center
03:04PM 36.5522 -83.4869 26° Northeast 493 567 37,000  Level Indianapolis Center
03:05PM 36.6756 -83.4097 27° Northeast 492 566 37,000  Level Indianapolis Center
03:06PM 36.8033 -83.3444 22° Northeast 487 560 37,000  Level Indianapolis Center
03:07PM 36.9383 -83.3025 14° North 491 565 37,000  Level Indianapolis Center
03:08PM 37.0958 -83.2519 14° North 492 566 37,000  Level Indianapolis Center
03:09PM 37.2306 -83.2086 14° North 493 567 37,000  Level Indianapolis Center
03:10PM 37.3653 -83.1658 14° North 494 568 37,000  Level Indianapolis Center
03:11PM 37.5014 -83.1228 14° North 499 574 37,000  Level Indianapolis Center
03:12PM 37.6364 -83.0772 15° North 500 575 37,000  Level Indianapolis Center
03:13PM 37.7708 -83.0336 14° North 497 572 37,000  Level Indianapolis Center
03:14PM 37.8986 -82.9703 21° North 486 559 37,000  Level Indianapolis Center
03:15PM 38.0492 -82.8889 23° Northeast 498 573 37,000  Level Indianapolis Center
03:16PM 38.1800 -82.8125 25° Northeast 512 589 37,000 -120 Level Indianapolis Center
03:17PM 38.3106 -82.7475 21° North 503 579 36,800 -480 Descending Indianapolis Center
03:18PM 38.4500 -82.7400 North 495 570 36,000 -1,080 Descending Indianapolis Center
03:19PM 38.5886 -82.7297 North 497 572 34,600 -1,020 Descending Indianapolis Center
03:20PM 38.7333 -82.6872 13° North 492 566 34,000 -300 Descending Indianapolis Center
03:21PM 38.8658 -82.6456 14° North 488 562 34,000  Level Indianapolis Center
03:22PM 39.0008 -82.6031 14° North 495 570 34,000  Level Indianapolis Center
03:23PM 39.1347 -82.5606 14° North 494 568 34,000 -480 Level Indianapolis Center
03:24PM 39.2928 -82.5081 14° North 506 582 33,100 -1,680 Descending Indianapolis Center
03:25PM 39.4358 -82.4597 15° North 503 579 30,600 -2,340 Descending Indianapolis Center
03:26PM 39.5650 -82.4186 14° North 502 578 28,300 -2,340 Descending Indianapolis Center
03:27PM 39.7003 -82.3728 15° North 500 575 25,800 -2,220 Descending Indianapolis Center
03:28PM 39.8353 -82.3272 15° North 498 573 23,800 -1,440 Descending Indianapolis Center
03:29PM 39.9883 -82.2781 14° North 485 558 22,900 -420 Descending Indianapolis Center
03:30PM 40.1208 -82.2367 13° North 486 559 23,000 -660 Climbing Indianapolis Center
03:32PM 40.2494 -82.1947 14° North 483 556 21,600 -1,680 Descending Indianapolis Center
03:33PM 40.3786 -82.1531 14° North 476 548 19,600 -2,040 Descending Indianapolis Center
03:34PM 40.4931 -82.0911 22° Northeast 446 513 17,500 -1,980 Descending Indianapolis Center
03:35PM 40.6064 -81.9792 37° Northeast 433 498 15,600 -2,100 Descending Indianapolis Center
03:35PM 40.6300 -81.9592 33° Northeast 431 496 14,700 -2,520 Descending Cleveland Center
03:35PM 40.6892 -81.8975 38° Northeast 435 501 13,400 -2,100 Descending Cleveland Center
03:36PM 40.7375 -81.8519 36° Northeast 424 488 12,400 -2,400 Descending Cleveland Center
03:36PM 40.7797 -81.8089 38° Northeast 423 487 11,000 -2,400 Descending Cleveland Center
03:37PM 40.8261 -81.7658 35° Northeast 386 444 10,000 -1,020 Descending Cleveland Center
03:37PM 40.8619 -81.7253 41° Northeast 393 452 10,000  Level Cleveland Center
03:38PM 40.9019 -81.6875 36° Northeast 317 365 10,000  Level Cleveland Center
03:38PM 40.9394 -81.6772 12° North 349 402 10,000  Level Cleveland Center
03:39PM 40.9744 -81.7161 320° Northwest 285 328 10,000  Level Cleveland Center
03:39PM 41.0014 -81.7414 325° Northwest 252 290 10,000  Level Cleveland Center
03:40PM 41.0344 -81.7833 316° Northwest 286 329 10,000 -120 Level Cleveland Center
03:40PM 41.0569 -81.8031 327° Northwest 257 296 9,900 -1,800 Descending Cleveland Center
03:41PM 41.0897 -81.8586 308° West 281 323 8,200 -2,400 Descending Cleveland Center
03:41PM 41.1019 -81.8836 303° West 269 310 7,500 -1,200 Descending Cleveland Center
03:42PM 41.1222 -81.9447 294° West 247 284 7,000 -540 Descending Cleveland Center
03:42PM 41.1325 -81.9642 305° West 258 297 7,000 -120 Level Cleveland Center
03:43PM 41.1483 -82.0114 294° West 186 214 6,900 -540 Descending Cleveland Center
03:43PM 41.1544 -82.0308 293° West 218 251 6,500 -1,020 Descending Cleveland Center
03:44PM 41.1811 -82.0731 310° West 187 215 5,900 -900 Descending Cleveland Center
03:44PM 41.1914 -82.0814 329° Northwest 189 217 5,600 -1,140 Descending Cleveland Center
03:45PM 41.2264 -82.1044 334° Northwest 197 227 4,800 -1,080 Descending Cleveland Center
03:46PM 41.2769 -82.0642 31° Northeast 220 253 3,800 -1,020 Descending Cleveland Center